Time;durP1;ratioP1;P1;durP2;ratioP2;P2;SDS_P1;SDS_P2;PMS_P1;PMS_P2;Temp;Humidity;BMP_temperature;BMP_pressure;BME280_temperature;BME280_humidity;BME280_pressure;Samples;Min_cycle;Max_cycle;Signal;HPM_P1;HPM_P2
2023/11/12 00:00:00;;;;;;;;;;;;;;;25.97;26.03;96836.53;5094079;28;19921;-95
2023/11/12 00:02:26;;;;;;;;;;;;;;;26.02;25.93;96836.63;5096660;28;19926;-94
2023/11/12 00:04:54;;;;;;;;;;;;;;;25.06;26.89;96836.81;5085311;28;19979;-94
2023/11/12 00:07:20;;;;;;;;;;;;;;;25.15;26.94;96836.78;5099500;28;19916;-94
2023/11/12 00:09:46;;;;;;;;;;;;;;;25.63;26.46;96834.94;5095161;28;19916;-94
2023/11/12 00:12:13;;;;;;;;;;;;;;;25.46;26.68;96835.81;5095234;28;19920;-94
2023/11/12 00:14:41;;;;;;;;;;;;;;;25.40;26.76;96842.03;5095820;28;20046;-95
2023/11/12 00:17:07;;;;;;;;;;;;;;;25.30;26.66;96846.09;5090143;28;19929;-95
2023/11/12 00:19:33;;;;;;;;;;;;;;;25.45;26.52;96848.28;5092128;28;20799;-93
2023/11/12 00:21:59;;;;;;;;;;;;;;;25.95;25.82;96847.47;5101594;28;20272;-93
2023/11/12 00:24:27;;;;;;;;;;;;;;;25.48;26.49;96855.78;5102103;28;19935;-94
2023/11/12 00:26:53;;;;;;;;;;;;;;;25.00;27.10;96855.53;5085498;28;19924;-93
2023/11/12 00:29:19;;;;;;;;;;;;;;;24.88;27.54;96859.28;5092981;28;19924;-93
2023/11/12 00:31:45;;;;;;;;;;;;;;;24.89;27.25;96848.81;5096899;28;19951;-95
2023/11/12 00:34:11;;;;;;;;;;;;;;;24.69;27.72;96852.09;5105529;28;20017;-94
2023/11/12 00:36:42;;;;;;;;;;;;;;;24.42;28.00;96858.44;5094423;28;19925;-93
2023/11/12 00:39:12;;;;;;;;;;;;;;;24.51;27.80;96866.88;5096558;28;19969;-93
2023/11/12 00:41:39;;;;;;;;;;;;;;;24.80;27.55;96860.06;5092933;28;19921;-94
2023/11/12 00:44:06;;;;;;;;;;;;;;;25.29;26.96;96867.03;5097671;28;20413;-94
2023/11/12 00:46:32;;;;;;;;;;;;;;;25.59;26.52;96870.88;5088413;28;19920;-94
2023/11/12 00:48:58;;;;;;;;;;;;;;;25.86;26.04;96873.59;5092578;28;20393;-92
2023/11/12 00:51:24;;;;;;;;;;;;;;;26.14;25.63;96868.63;5094273;28;19927;-92
2023/11/12 00:53:51;;;;;;;;;;;;;;;26.24;25.35;96866.56;5089484;28;20013;-94
2023/11/12 00:56:17;;;;;;;;;;;;;;;25.71;26.34;96872.72;5093942;28;19920;-95
2023/11/12 00:58:44;;;;;;;;;;;;;;;25.87;26.30;96871.56;5089378;28;19921;-94
2023/11/12 01:01:10;;;;;;;;;;;;;;;25.76;26.00;96868.50;5090860;28;20387;-94
2023/11/12 01:03:36;;;;;;;;;;;;;;;25.75;26.10;96870.50;5094849;28;20014;-95
2023/11/12 01:06:03;;;;;;;;;;;;;;;25.34;26.70;96874.06;5111023;28;19946;-93
2023/11/12 01:08:30;;;;;;;;;;;;;;;24.80;27.25;96876.91;5096650;28;20482;-94
2023/11/12 01:10:56;;;;;;;;;;;;;;;24.78;27.34;96882.22;5091304;28;19992;-93
2023/11/12 01:13:22;;;;;;;;;;;;;;;25.31;26.79;96889.03;5108353;28;19920;-93
2023/11/12 01:15:49;;;;;;;;;;;;;;;24.95;27.42;96895.47;5099616;28;20011;-92
2023/11/12 01:18:16;;;;;;;;;;;;;;;24.16;28.37;96882.41;5097880;28;19920;-93
2023/11/12 01:20:42;;;;;;;;;;;;;;;24.13;28.46;96888.16;5089063;28;19928;-94
2023/11/12 01:23:09;;;;;;;;;;;;;;;24.49;28.04;96885.41;5089153;28;19924;-94
2023/11/12 01:25:35;;;;;;;;;;;;;;;23.91;28.48;96882.59;5095215;28;19920;-94
2023/11/12 01:28:02;;;;;;;;;;;;;;;23.62;28.85;96888.53;5103110;28;19924;-95
2023/11/12 01:30:28;;;;;;;;;;;;;;;24.11;28.25;96883.00;5105590;28;19904;-94
2023/11/12 01:32:54;;;;;;;;;;;;;;;23.38;28.91;96887.50;5089268;28;19920;-94
2023/11/12 01:35:20;;;;;;;;;;;;;;;22.60;30.59;96900.66;5095079;28;19916;-96
2023/11/12 01:37:47;;;;;;;;;;;;;;;22.73;30.37;96904.25;5099611;28;20493;-95
2023/11/12 01:40:15;;;;;;;;;;;;;;;23.39;29.69;96897.44;5106267;28;19920;-94
2023/11/12 01:42:42;;;;;;;;;;;;;;;23.61;29.07;96892.59;5117483;28;19924;-94
2023/11/12 01:45:09;;;;;;;;;;;;;;;23.02;29.82;96890.00;5089028;28;20346;-95
2023/11/12 01:47:36;;;;;;;;;;;;;;;22.05;30.84;96904.94;5095338;28;19917;-94
2023/11/12 01:50:03;;;;;;;;;;;;;;;22.44;30.53;96896.03;5068700;28;19920;-95
2023/11/12 01:52:32;;;;;;;;;;;;;;;22.94;29.95;96902.72;5114416;28;20311;-95
2023/11/12 01:54:59;;;;;;;;;;;;;;;22.61;30.45;96903.03;5099263;28;19920;-95
2023/11/12 01:57:26;;;;;;;;;;;;;;;22.03;31.52;96907.41;5106736;28;19920;-94
2023/11/12 01:59:53;;;;;;;;;;;;;;;23.41;29.11;96900.56;5105781;28;20318;-95
2023/11/12 02:02:20;;;;;;;;;;;;;;;23.55;28.91;96905.63;5102819;28;19920;-94
2023/11/12 02:04:48;;;;;;;;;;;;;;;23.61;28.91;96900.22;5109889;28;19946;-94
2023/11/12 02:07:14;;;;;;;;;;;;;;;23.30;28.92;96902.97;5099570;28;19924;-96
2023/11/12 02:09:41;;;;;;;;;;;;;;;23.36;29.09;96903.97;5118635;28;19942;-94
2023/11/12 02:12:07;;;;;;;;;;;;;;;23.48;28.87;96914.31;5115665;28;19966;-94
2023/11/12 02:14:33;;;;;;;;;;;;;;;23.75;28.67;96913.69;5103163;28;19916;-96
2023/11/12 02:16:59;;;;;;;;;;;;;;;24.29;27.57;96910.34;5102143;28;19927;-94
2023/11/12 02:19:27;;;;;;;;;;;;;;;24.55;27.62;96909.59;5101754;28;19916;-94
2023/11/12 02:21:53;;;;;;;;;;;;;;;24.37;27.64;96909.56;5114921;28;19920;-94
2023/11/12 02:24:20;;;;;;;;;;;;;;;22.43;30.71;96919.63;5107626;28;19947;-94
2023/11/12 02:26:47;;;;;;;;;;;;;;;23.47;28.88;96909.94;5102507;28;19923;-95
2023/11/12 02:29:13;;;;;;;;;;;;;;;23.12;29.12;96925.25;5112139;28;19920;-93
2023/11/12 02:31:39;;;;;;;;;;;;;;;23.74;28.62;96912.09;5101253;28;20299;-95
2023/11/12 02:34:05;;;;;;;;;;;;;;;23.85;28.19;96912.50;5110208;28;19962;-94
2023/11/12 02:36:34;;;;;;;;;;;;;;;24.04;28.05;96911.28;5104428;28;19943;-95
2023/11/12 02:39:04;;;;;;;;;;;;;;;23.49;28.69;96918.69;5099940;28;20672;-94
2023/11/12 02:41:30;;;;;;;;;;;;;;;23.77;28.09;96920.38;5094544;28;19920;-94
2023/11/12 02:43:56;;;;;;;;;;;;;;;23.77;28.18;96920.38;5105810;28;19916;-94
2023/11/12 02:46:22;;;;;;;;;;;;;;;24.31;27.48;96921.88;5094024;28;19946;-94
2023/11/12 02:48:52;;;;;;;;;;;;;;;23.57;28.57;96931.16;5112377;28;20432;-94
2023/11/12 02:51:19;;;;;;;;;;;;;;;23.78;28.42;96935.19;5110887;28;20019;-95
2023/11/12 02:53:46;;;;;;;;;;;;;;;23.91;27.98;96939.47;5114226;28;19976;-94
2023/11/12 02:56:12;;;;;;;;;;;;;;;23.50;28.50;96930.66;5100447;28;19921;-94
2023/11/12 02:58:38;;;;;;;;;;;;;;;23.94;28.23;96938.50;5110286;28;20257;-96
2023/11/12 03:01:04;;;;;;;;;;;;;;;24.71;26.89;96939.41;5100847;28;20426;-95
2023/11/12 03:03:30;;;;;;;;;;;;;;;24.23;27.45;96937.41;5090541;28;19920;-96
2023/11/12 03:05:56;;;;;;;;;;;;;;;;;;5103287;28;19920;-95
2023/11/12 03:08:22;;;;;;;;;;;;;;;23.63;28.17;96939.75;5103960;28;19966;-94
2023/11/12 03:10:49;;;;;;;;;;;;;;;24.11;27.72;96941.88;5103090;28;19920;-95
2023/11/12 03:13:15;;;;;;;;;;;;;;;23.34;28.68;96952.03;5093603;28;19948;-95
2023/11/12 03:15:42;;;;;;;;;;;;;;;22.61;29.81;96953.41;5098465;28;19964;-95
2023/11/12 03:18:09;;;;;;;;;;;;;;;23.20;29.04;96946.91;5101017;28;19920;-95
2023/11/12 03:20:35;;;;;;;;;;;;;;;24.10;27.79;96950.78;5099471;28;19928;-94
2023/11/12 03:23:03;;;;;;;;;;;;;;;24.07;27.76;96951.69;5093943;28;19924;-94
2023/11/12 03:25:31;;;;;;;;;;;;;;;24.34;27.41;96949.00;5096489;28;19921;-94
2023/11/12 03:27:57;;;;;;;;;;;;;;;25.03;26.36;96950.06;5082887;28;20295;-95
2023/11/12 03:30:23;;;;;;;;;;;;;;;23.50;28.30;96961.50;5092023;28;19949;-95
2023/11/12 03:32:50;;;;;;;;;;;;;;;23.70;28.28;96957.09;5103225;28;20418;-95
2023/11/12 03:35:16;;;;;;;;;;;;;;;24.43;27.10;96958.22;5090231;28;19943;-95
2023/11/12 03:37:42;;;;;;;;;;;;;;;25.05;26.44;96960.84;5088767;28;19974;-94
2023/11/12 03:40:09;;;;;;;;;;;;;;;25.06;26.21;96966.00;5099133;28;19924;-95
2023/11/12 03:42:35;;;;;;;;;;;;;;;25.11;26.15;96962.53;5090855;28;19941;-94
2023/11/12 03:45:01;;;;;;;;;;;;;;;24.05;27.31;96961.31;5096942;28;19976;-95
2023/11/12 03:47:27;;;;;;;;;;;;;;;24.12;27.43;96967.91;5090081;28;20027;-95
2023/11/12 03:49:53;;;;;;;;;;;;;;;23.22;28.53;96960.50;5091114;28;19920;-93
2023/11/12 03:52:19;;;;;;;;;;;;;;;22.89;29.68;96965.66;5103471;28;19925;-95
2023/11/12 03:54:45;;;;;;;;;;;;;;;23.56;28.36;96957.63;5094776;28;20398;-95
2023/11/12 03:57:12;;;;;;;;;;;;;;;22.36;29.71;96956.22;5085179;28;19923;-96
2023/11/12 03:59:38;;;;;;;;;;;;;;;23.45;28.60;96968.47;5101703;28;19916;-95
2023/11/12 04:02:04;;;;;;;;;;;;;;;22.97;29.16;96966.16;5096109;28;19920;-96
2023/11/12 04:04:30;;;;;;;;;;;;;;;23.88;27.85;96968.41;5097592;28;19920;-94
2023/11/12 04:06:57;;;;;;;;;;;;;;;24.23;27.40;96960.63;5091841;28;19921;-94
2023/11/12 04:09:23;;;;;;;;;;;;;;;23.97;27.50;96953.63;5100442;28;19920;-94
2023/11/12 04:11:49;;;;;;;;;;;;;;;23.71;28.06;96949.47;5107305;28;19927;-95
2023/11/12 04:14:15;;;;;;;;;;;;;;;23.23;28.41;96968.41;5100314;28;19982;-93
2023/11/12 04:16:41;;;;;;;;;;;;;;;22.91;29.16;96963.19;5100443;28;20365;-95
2023/11/12 04:19:07;;;;;;;;;;;;;;;22.66;29.72;96964.03;5085489;28;19944;-95
2023/11/12 04:21:34;;;;;;;;;;;;;;;22.26;30.31;96970.56;5081607;28;20371;-96
2023/11/12 04:24:00;;;;;;;;;;;;;;;21.86;30.80;96975.81;5104616;28;19924;-95
2023/11/12 04:26:29;;;;;;;;;;;;;;;22.98;29.14;96979.72;5097838;28;19973;-93
2023/11/12 04:28:55;;;;;;;;;;;;;;;22.29;30.21;96978.03;5099750;28;19921;-94
2023/11/12 04:31:21;;;;;;;;;;;;;;;20.79;32.57;96980.00;5100266;28;19932;-94
2023/11/12 04:33:47;;;;;;;;;;;;;;;21.08;32.25;96988.41;5101377;28;19921;-96
2023/11/12 04:36:14;;;;;;;;;;;;;;;22.43;29.73;96989.53;5087128;28;19923;-96
2023/11/12 04:38:40;;;;;;;;;;;;;;;22.90;29.04;96989.59;5101297;28;19913;-96
2023/11/12 04:41:11;;;;;;;;;;;;;;;21.60;30.97;96994.50;5113956;28;19924;-95
2023/11/12 04:43:38;;;;;;;;;;;;;;;23.01;28.99;96995.59;5103419;28;19920;-96
2023/11/12 04:46:04;;;;;;;;;;;;;;;23.09;28.48;96991.31;5107208;28;19973;-96
2023/11/12 04:48:30;;;;;;;;;;;;;;;22.95;29.07;97003.03;5095428;28;19943;-96
2023/11/12 04:50:56;;;;;;;;;;;;;;;22.03;30.14;97000.41;5090304;28;19992;-95
2023/11/12 04:53:22;;;;;;;;;;;;;;;22.68;29.23;97011.91;5106598;28;19924;-96
2023/11/12 04:55:48;;;;;;;;;;;;;;;22.50;29.61;97016.50;5103185;28;19920;-94
2023/11/12 04:58:15;;;;;;;;;;;;;;;23.10;28.55;97023.69;5107671;28;19921;-96
2023/11/12 05:00:41;;;;;;;;;;;;;;;23.57;27.90;97028.47;5104062;28;19979;-96
2023/11/12 05:03:07;;;;;;;;;;;;;;;23.23;28.23;97027.22;5108205;28;19927;-93
2023/11/12 05:05:33;;;;;;;;;;;;;;;22.75;28.98;97024.91;5110304;28;20036;-95
2023/11/12 05:07:59;;;;;;;;;;;;;;;22.65;29.07;97032.41;5101675;28;19920;-95
2023/11/12 05:10:26;;;;;;;;;;;;;;;22.97;28.64;97033.34;5101897;28;19920;-94
2023/11/12 05:12:52;;;;;;;;;;;;;;;23.68;27.69;97035.25;5110791;28;19935;-94
2023/11/12 05:15:18;;;;;;;;;;;;;;;23.25;28.22;97033.16;5107242;28;19920;-96
2023/11/12 05:17:44;;;;;;;;;;;;;;;23.36;27.83;97044.03;5100501;28;19927;-94
2023/11/12 05:20:11;;;;;;;;;;;;;;;22.91;28.61;97040.75;5101335;28;19924;-94
2023/11/12 05:22:37;;;;;;;;;;;;;;;22.75;28.74;97044.50;5103340;28;19971;-94
2023/11/12 05:25:03;;;;;;;;;;;;;;;22.84;28.86;97046.59;5114456;28;19920;-94
2023/11/12 05:27:29;;;;;;;;;;;;;;;23.46;27.90;97048.44;5114760;28;19927;-95
2023/11/12 05:29:55;;;;;;;;;;;;;;;22.75;28.96;97050.09;5107215;28;19920;-94
2023/11/12 05:32:21;;;;;;;;;;;;;;;23.25;28.23;97051.97;5119843;28;20341;-95
2023/11/12 05:34:47;;;;;;;;;;;;;;;22.14;29.35;97050.41;5107606;28;19927;-96
2023/11/12 05:37:13;;;;;;;;;;;;;;;23.09;28.07;97036.13;5105213;28;19927;-95
2023/11/12 05:39:39;;;;;;;;;;;;;;;23.15;28.08;97048.31;5098719;28;19942;-96
2023/11/12 05:42:05;;;;;;;;;;;;;;;22.49;28.91;97057.69;5108587;28;19946;-94
2023/11/12 05:44:31;;;;;;;;;;;;;;;22.47;29.08;97060.16;5108214;28;19931;-96
2023/11/12 05:46:58;;;;;;;;;;;;;;;22.42;28.97;97051.53;5101949;28;19920;-96
2023/11/12 05:49:24;;;;;;;;;;;;;;;22.42;28.81;97049.53;5109536;28;19947;-95
2023/11/12 05:51:50;;;;;;;;;;;;;;;22.27;29.09;97061.56;5096210;28;19920;-94
2023/11/12 05:54:16;;;;;;;;;;;;;;;22.90;28.32;97070.75;5104171;28;19924;-96
2023/11/12 05:56:42;;;;;;;;;;;;;;;22.20;29.27;97062.59;5100593;28;19916;-96
2023/11/12 05:59:08;;;;;;;;;;;;;;;22.10;29.22;97060.13;5111884;28;19973;-96
2023/11/12 06:01:34;;;;;;;;;;;;;;;22.75;28.52;97078.06;5103577;28;19920;-95
2023/11/12 06:04:02;;;;;;;;;;;;;;;22.61;28.45;97075.72;5090409;28;19956;-93
2023/11/12 06:06:28;;;;;;;;;;;;;;;23.60;27.03;97084.38;5087773;28;19983;-93
2023/11/12 06:08:54;;;;;;;;;;;;;;;23.06;27.70;97083.81;5093152;28;19927;-94
2023/11/12 06:11:21;;;;;;;;;;;;;;;22.00;29.63;97090.75;5095689;28;19928;-94
2023/11/12 06:13:47;;;;;;;;;;;;;;;23.24;27.71;97095.22;5092273;28;19927;-93
2023/11/12 06:16:13;;;;;;;;;;;;;;;23.05;27.86;97096.28;5095619;28;19959;-92
2023/11/12 06:18:39;;;;;;;;;;;;;;;22.52;28.33;97086.78;5100467;28;20014;-95
2023/11/12 06:21:05;;;;;;;;;;;;;;;22.15;29.22;97112.69;5112380;28;19927;-92
2023/11/12 06:23:31;;;;;;;;;;;;;;;22.73;28.04;97107.75;5095986;28;19974;-92
2023/11/12 06:25:57;;;;;;;;;;;;;;;23.40;27.34;97109.09;5101288;28;19927;-90
2023/11/12 06:28:24;;;;;;;;;;;;;;;23.46;27.03;97112.88;5080292;28;19923;-91
2023/11/12 06:30:51;;;;;;;;;;;;;;;23.17;27.47;97120.69;5089441;28;19924;-91
2023/11/12 06:33:17;;;;;;;;;;;;;;;23.95;26.51;97121.53;5088584;28;19924;-90
2023/11/12 06:35:43;;;;;;;;;;;;;;;23.78;26.49;97126.56;5075940;28;19931;-90
2023/11/12 06:38:09;;;;;;;;;;;;;;;24.08;26.48;97122.31;5078754;28;19921;-91
2023/11/12 06:40:35;;;;;;;;;;;;;;;24.24;25.88;97133.31;5085154;28;19920;-91
2023/11/12 06:43:01;;;;;;;;;;;;;;;23.84;26.68;97135.16;5086918;28;20026;-90
2023/11/12 06:45:28;;;;;;;;;;;;;;;23.62;26.67;97139.97;5089344;28;19958;-91
2023/11/12 06:47:53;;;;;;;;;;;;;;;;;;5097135;28;19920;-89
2023/11/12 06:50:19;;;;;;;;;;;;;;;24.39;25.90;97130.72;5079419;28;19935;-93
2023/11/12 06:52:45;;;;;;;;;;;;;;;24.51;25.63;97135.50;5091298;28;19924;-94
2023/11/12 06:55:12;;;;;;;;;;;;;;;24.10;26.30;97142.25;5086220;28;19931;-92
2023/11/12 06:57:38;;;;;;;;;;;;;;;24.93;25.39;97128.22;5092043;28;19927;-93
2023/11/12 07:00:04;;;;;;;;;;;;;;;25.06;24.82;97137.34;5087434;28;19924;-93
2023/11/12 07:02:30;;;;;;;;;;;;;;;25.06;24.85;97137.34;5097189;28;19919;-95
2023/11/12 07:04:57;;;;;;;;;;;;;;;25.73;24.56;97137.31;5095828;28;19920;-96
2023/11/12 07:07:23;;;;;;;;;;;;;;;26.30;23.73;97140.44;5098818;28;19993;-96
2023/11/12 07:09:49;;;;;;;;;;;;;;;26.10;23.68;97140.94;5085418;28;19990;-92
2023/11/12 07:12:15;;;;;;;;;;;;;;;24.53;25.69;97149.84;5087346;28;19920;-88
2023/11/12 07:14:41;;;;;;;;;;;;;;;25.20;24.97;97147.19;5089480;28;20201;-96
2023/11/12 07:17:07;;;;;;;;;;;;;;;25.61;24.40;97154.31;5096056;28;19920;-95
2023/11/12 07:19:33;;;;;;;;;;;;;;;25.15;24.78;97148.59;5091062;28;19920;-91
2023/11/12 07:22:00;;;;;;;;;;;;;;;25.41;24.80;97146.31;5091503;28;19920;-93
2023/11/12 07:24:26;;;;;;;;;;;;;;;25.37;24.79;97145.66;5086237;28;19927;-94
2023/11/12 07:26:52;;;;;;;;;;;;;;;25.71;24.52;97148.25;5082962;28;19921;-93
2023/11/12 07:29:19;;;;;;;;;;;;;;;25.82;24.17;97150.59;5091128;28;19943;-94
2023/11/12 07:31:45;;;;;;;;;;;;;;;24.96;24.95;97152.59;5089864;28;20302;-95
2023/11/12 07:34:11;;;;;;;;;;;;;;;24.09;26.33;97159.53;5094340;28;20370;-95
2023/11/12 07:36:37;;;;;;;;;;;;;;;24.77;25.30;97155.75;5087644;28;19945;-93
2023/11/12 07:39:03;;;;;;;;;;;;;;;24.63;25.47;97163.47;5090789;28;20015;-94
2023/11/12 07:41:32;;;;;;;;;;;;;;;24.44;25.63;97161.00;5086704;28;19965;-95
2023/11/12 07:43:59;;;;;;;;;;;;;;;24.84;25.40;97163.91;5073761;28;20557;-94
2023/11/12 07:46:25;;;;;;;;;;;;;;;25.27;24.95;97163.78;5087334;28;19923;-95
2023/11/12 07:48:51;;;;;;;;;;;;;;;25.46;24.46;97150.56;5081102;28;19929;-94
2023/11/12 07:51:17;;;;;;;;;;;;;;;25.38;24.43;97164.09;5074538;28;20904;-93
2023/11/12 07:53:44;;;;;;;;;;;;;;;25.46;24.58;97159.00;5074788;28;20395;-93
2023/11/12 07:56:10;;;;;;;;;;;;;;;24.37;25.88;97169.69;5081671;28;20007;-93
2023/11/12 07:58:37;;;;;;;;;;;;;;;24.35;25.96;97175.78;5069890;28;19956;-92
2023/11/12 08:01:03;;;;;;;;;;;;;;;24.25;26.25;97179.75;5081855;28;19958;-93
2023/11/12 08:03:29;;;;;;;;;;;;;;;24.41;26.03;97182.34;5086129;28;20019;-94
2023/11/12 08:05:55;;;;;;;;;;;;;;;24.81;25.59;97182.44;5084236;28;19939;-93
2023/11/12 08:08:23;;;;;;;;;;;;;;;24.76;25.57;97185.88;5093378;28;19985;-94
2023/11/12 08:10:49;;;;;;;;;;;;;;;25.05;25.36;97185.53;5091207;28;19920;-96
2023/11/12 08:13:15;;;;;;;;;;;;;;;24.92;25.21;97185.66;5090848;28;19936;-95
2023/11/12 08:15:41;;;;;;;;;;;;;;;24.73;25.29;97192.38;5086286;28;20395;-96
2023/11/12 08:18:07;;;;;;;;;;;;;;;23.56;26.72;97195.00;5088113;28;20027;-95
2023/11/12 08:20:35;;;;;;;;;;;;;;;22.71;27.85;97194.91;5082887;28;19921;-95
2023/11/12 08:23:02;;;;;;;;;;;;;;;22.74;28.03;97196.81;5087969;28;20384;-95
2023/11/12 08:25:28;;;;;;;;;;;;;;;22.94;27.77;97203.00;5091051;28;20403;-93
2023/11/12 08:27:54;;;;;;;;;;;;;;;23.36;27.21;97201.66;5090479;28;19920;-94
2023/11/12 08:30:20;;;;;;;;;;;;;;;23.61;27.10;97212.06;5092966;28;19920;-95
2023/11/12 08:32:47;;;;;;;;;;;;;;;24.24;25.99;97211.06;5090183;28;19942;-95
2023/11/12 08:35:13;;;;;;;;;;;;;;;24.73;25.76;97214.84;5087860;28;19920;-96
2023/11/12 08:37:40;;;;;;;;;;;;;;;24.29;26.23;97222.50;5080879;28;19953;-96
2023/11/12 08:40:07;;;;;;;;;;;;;;;24.89;25.42;97222.28;5083001;28;19936;-93
2023/11/12 08:42:33;;;;;;;;;;;;;;;24.58;25.64;97228.63;5083857;28;20364;-92
2023/11/12 08:44:59;;;;;;;;;;;;;;;24.37;25.91;97231.41;5087526;28;19923;-91
2023/11/12 08:47:26;;;;;;;;;;;;;;;24.61;25.57;97229.72;5086635;28;19924;-94
2023/11/12 08:49:52;;;;;;;;;;;;;;;24.40;25.94;97225.69;5082178;28;19930;-96
2023/11/12 08:52:18;;;;;;;;;;;;;;;24.46;26.13;97237.88;5097298;28;19932;-94
2023/11/12 08:54:47;;;;;;;;;;;;;;;23.32;26.90;97239.38;5094144;28;19921;-96
2023/11/12 08:57:13;;;;;;;;;;;;;;;24.37;25.94;97242.66;5074799;28;19941;-95
2023/11/12 08:59:39;;;;;;;;;;;;;;;23.42;26.79;97245.91;5085964;28;20011;-95
2023/11/12 09:02:09;;;;;;;;;;;;;;;23.37;27.35;97241.66;5092909;28;19919;-94
2023/11/12 09:04:35;;;;;;;;;;;;;;;24.20;26.27;97253.25;5085856;28;19920;-96
2023/11/12 09:07:01;;;;;;;;;;;;;;;23.79;26.57;97257.06;5098170;28;19985;-96
2023/11/12 09:09:27;;;;;;;;;;;;;;;23.37;27.27;97258.47;5088312;28;19938;-94
2023/11/12 09:11:56;;;;;;;;;;;;;;;23.70;26.87;97262.59;5093864;28;19927;-94
2023/11/12 09:14:22;;;;;;;;;;;;;;;24.39;26.08;97262.59;5089186;28;19924;-95
2023/11/12 09:16:48;;;;;;;;;;;;;;;24.71;25.55;97265.06;5091586;28;19920;-95
2023/11/12 09:19:14;;;;;;;;;;;;;;;24.98;25.15;97270.06;5087040;28;19921;-96
2023/11/12 09:21:41;;;;;;;;;;;;;;;24.84;25.21;97271.38;5090899;28;19927;-95
2023/11/12 09:24:07;;;;;;;;;;;;;;;24.67;25.51;97267.19;5094634;28;19923;-93
2023/11/12 09:26:33;;;;;;;;;;;;;;;24.02;26.64;97276.31;5101968;28;19920;-96
2023/11/12 09:28:59;;;;;;;;;;;;;;;22.78;28.03;97275.09;5096432;28;20364;-93
2023/11/12 09:31:26;;;;;;;;;;;;;;;22.66;28.56;97280.19;5096503;28;19920;-96
2023/11/12 09:33:52;;;;;;;;;;;;;;;23.27;27.76;97279.94;5100412;28;19970;-96
2023/11/12 09:36:18;;;;;;;;;;;;;;;23.80;26.72;97281.06;5094318;28;19916;-96
2023/11/12 09:38:44;;;;;;;;;;;;;;;24.64;25.60;97280.09;5105053;28;19924;-95
2023/11/12 09:41:10;;;;;;;;;;;;;;;23.76;26.81;97283.19;5097414;28;20389;-96
2023/11/12 09:43:36;;;;;;;;;;;;;;;24.45;25.93;97281.22;5088888;28;19921;-96
2023/11/12 09:46:06;;;;;;;;;;;;;;;23.36;27.25;97280.09;5091298;28;19964;-96
2023/11/12 09:48:38;;;;;;;;;;;;;;;23.49;26.94;97288.50;5086880;28;19928;-95
2023/11/12 09:51:11;;;;;;;;;;;;;;;23.89;26.79;97283.19;5096884;28;19920;-94
2023/11/12 09:53:39;;;;;;;;;;;;;;;24.86;25.49;97282.16;5090890;28;19943;-94
2023/11/12 09:56:09;;;;;;;;;;;;;;;25.09;24.95;97288.06;5088269;28;20023;-92
2023/11/12 09:58:36;;;;;;;;;;;;;;;25.17;25.03;97282.97;5089675;28;19939;-92
2023/11/12 10:01:04;;;;;;;;;;;;;;;24.36;25.76;97291.59;5087029;28;19924;-91
2023/11/12 10:03:30;;;;;;;;;;;;;;;24.52;25.83;97295.00;5096533;28;19946;-93
2023/11/12 10:05:58;;;;;;;;;;;;;;;24.12;25.98;97290.44;5084367;28;19920;-94
2023/11/12 10:08:25;;;;;;;;;;;;;;;24.51;25.54;97292.63;5091011;28;20253;-94
2023/11/12 10:10:51;;;;;;;;;;;;;;;24.23;26.17;97293.66;5070647;28;19926;-94
2023/11/12 10:13:17;;;;;;;;;;;;;;;24.68;25.77;97294.81;5104482;28;19926;-91
2023/11/12 10:15:44;;;;;;;;;;;;;;;25.10;25.00;97286.06;5095553;28;19917;-93
2023/11/12 10:18:10;;;;;;;;;;;;;;;25.02;24.78;97291.16;5096992;28;19924;-92
2023/11/12 10:20:38;;;;;;;;;;;;;;;24.96;25.18;97301.44;5085388;28;19927;-92
2023/11/12 10:23:04;;;;;;;;;;;;;;;25.18;25.13;97293.72;5086884;28;19985;-92
2023/11/12 10:25:41;;;;;;;;;;;;;;;25.43;24.71;97295.59;5076450;28;19942;-93
2023/11/12 10:28:08;;;;;;;;;;;;;;;25.29;24.47;97296.94;5094311;28;20373;-91
2023/11/12 10:30:40;;;;;;;;;;;;;;;25.25;24.60;97301.88;5092350;28;19916;-93
2023/11/12 10:33:20;;;;;;;;;;;;;;;25.34;24.51;97299.13;5086662;28;19924;-92
2023/11/12 10:35:46;;;;;;;;;;;;;;;25.55;24.45;97296.75;5084495;28;19916;-93
2023/11/12 10:38:17;;;;;;;;;;;;;;;25.52;24.57;97297.66;5087721;28;19920;-94
2023/11/12 10:40:58;;;;;;;;;;;;;;;25.26;24.87;97303.47;5094618;28;19930;-92
2023/11/12 10:43:25;;;;;;;;;;;;;;;24.90;24.81;97305.28;5086272;28;19920;-94
2023/11/12 10:45:56;;;;;;;;;;;;;;;24.45;25.86;97302.91;5096868;28;19946;-92
2023/11/12 10:48:28;;;;;;;;;;;;;;;24.38;25.89;97303.16;5078329;28;19926;-92
2023/11/12 10:50:54;;;;;;;;;;;;;;;24.59;25.67;97311.59;5099636;28;19941;-92
2023/11/12 10:53:21;;;;;;;;;;;;;;;25.36;25.04;97307.91;5088981;28;20391;-93
2023/11/12 10:55:47;;;;;;;;;;;;;;;25.48;24.63;97302.66;5091404;28;19920;-93
2023/11/12 10:58:13;;;;;;;;;;;;;;;25.45;24.78;97309.97;5096263;28;19920;-92
2023/11/12 11:00:40;;;;;;;;;;;;;;;25.71;25.25;97307.75;5087821;28;19920;-93
2023/11/12 11:03:08;;;;;;;;;;;;;;;26.24;24.35;97299.91;5093247;28;19935;-95
2023/11/12 11:05:34;;;;;;;;;;;;;;;26.63;23.69;97305.41;5093062;28;19920;-94
2023/11/12 11:08:00;;;;;;;;;;;;;;;26.65;23.35;97296.50;5090015;28;20019;-95
2023/11/12 11:10:26;;;;;;;;;;;;;;;26.32;23.75;97306.81;5087223;28;19928;-96
2023/11/12 11:12:53;;;;;;;;;;;;;;;26.63;23.86;97298.97;5087732;28;19959;-94
2023/11/12 11:15:58;;;;;;;;;;;;;;;26.37;23.37;97295.69;5100121;28;20353;-95
2023/11/12 11:18:28;;;;;;;;;;;;;;;24.46;25.94;97299.63;5038250;28;19920;-94
2023/11/12 11:21:06;;;;;;;;;;;;;;;23.89;26.67;97302.81;5106499;28;19924;-96
2023/11/12 11:23:43;;;;;;;;;;;;;;;23.66;26.84;97300.38;5088505;28;19927;-94
2023/11/12 11:26:25;;;;;;;;;;;;;;;24.27;26.43;97302.75;5093051;28;20729;-96
2023/11/12 11:29:04;;;;;;;;;;;;;;;24.99;25.63;97296.91;5098518;28;19920;-95
2023/11/12 11:31:31;;;;;;;;;;;;;;;24.67;26.56;97300.88;5089277;28;19924;-91
2023/11/12 11:33:58;;;;;;;;;;;;;;;25.01;26.27;97303.66;5079527;28;20364;-95
2023/11/12 11:36:25;;;;;;;;;;;;;;;25.83;24.56;97299.19;5086199;28;19942;-95
2023/11/12 11:39:17;;;;;;;;;;;;;;;25.98;24.21;97302.19;5104195;28;19941;-96
2023/11/12 11:41:45;;;;;;;;;;;;;;;25.16;24.77;97315.09;5095460;28;20013;-95
2023/11/12 11:44:30;;;;;;;;;;;;;;;25.30;24.52;97303.31;5089733;28;19928;-96
2023/11/12 11:47:16;;;;;;;;;;;;;;;25.91;24.43;97302.47;5071486;28;19924;-93
2023/11/12 11:49:43;;;;;;;;;;;;;;;25.68;24.62;97303.81;5093105;28;19955;-94
2023/11/12 11:52:10;;;;;;;;;;;;;;;25.49;23.81;97307.03;5088808;28;21788;-92
2023/11/12 11:54:38;;;;;;;;;;;;;;;25.59;24.41;97303.78;5092699;28;20393;-96
2023/11/12 11:57:04;;;;;;;;;;;;;;;26.09;23.60;97294.84;5086046;28;19931;-93
2023/11/12 11:59:40;;;;;;;;;;;;;;;26.09;23.89;97299.72;5098431;28;19924;-94
2023/11/12 12:02:15;;;;;;;;;;;;;;;25.69;23.67;97296.97;5097449;28;20383;-96
2023/11/12 12:04:49;;;;;;;;;;;;;;;26.06;23.71;97298.63;5100828;28;19928;-93
2023/11/12 12:07:19;;;;;;;;;;;;;;;26.52;23.13;97302.28;5088659;28;19920;-94
2023/11/12 12:09:45;;;;;;;;;;;;;;;26.44;22.80;97295.38;5085675;28;19924;-94
2023/11/12 12:12:13;;;;;;;;;;;;;;;26.53;22.78;97301.03;5085933;28;19924;-93
2023/11/12 12:14:39;;;;;;;;;;;;;;;26.99;22.32;97292.56;5092844;28;19920;-96
2023/11/12 12:17:08;;;;;;;;;;;;;;;27.23;21.75;97288.59;5092725;28;19963;-93
2023/11/12 12:19:35;;;;;;;;;;;;;;;27.33;21.93;97286.50;5087201;28;19931;-94
2023/11/12 12:22:03;;;;;;;;;;;;;;;27.70;21.54;97287.19;5086140;28;19928;-96
2023/11/12 12:24:29;;;;;;;;;;;;;;;27.82;21.50;97289.00;5090839;28;19936;-94
2023/11/12 12:26:56;;;;;;;;;;;;;;;28.19;20.95;97292.41;5099363;28;19924;-94
2023/11/12 12:29:26;;;;;;;;;;;;;;;27.92;21.36;97294.09;5091470;28;19927;-93
2023/11/12 12:31:54;;;;;;;;;;;;;;;28.05;20.78;97293.91;5075573;28;20307;-92
2023/11/12 12:34:21;;;;;;;;;;;;;;;27.62;21.26;97294.41;5084641;28;20045;-92
2023/11/12 12:37:02;;;;;;;;;;;;;;;27.96;21.94;97293.91;5081258;28;20436;-93
2023/11/12 12:39:28;;;;;;;;;;;;;;;28.13;21.10;97288.66;5077726;28;19920;-94
2023/11/12 12:41:55;;;;;;;;;;;;;;;27.64;20.70;97298.31;5076507;28;19921;-92
2023/11/12 12:44:23;;;;;;;;;;;;;;;27.59;21.48;97296.16;5087141;28;19924;-94
2023/11/12 12:46:51;;;;;;;;;;;;;;;26.70;21.79;97305.06;5085194;28;19928;-93